Time;durP1;ratioP1;P1;durP2;ratioP2;P2;SDS_P1;SDS_P2;PMS_P1;PMS_P2;Temp;Humidity;BMP_temperature;BMP_pressure;BME280_temperature;BME280_humidity;BME280_pressure;Samples;Min_cycle;Max_cycle;Signal;HPM_P1;HPM_P2
2022/06/06 00:00:16;;;;;;;69.35;40.47;;;;;;;;;;5345125;27;20403;-71
2022/06/06 00:02:49;;;;;;;67.35;38.13;;;;;;;;;;5344356;27;20119;-71
2022/06/06 00:05:20;;;;;;;70.13;38.33;;;;;;;;;;5344810;27;20015;-71
2022/06/06 00:07:51;;;;;;;73.33;39.60;;;;;;;;;;5345529;27;20079;-71
2022/06/06 00:10:23;;;;;;;67.82;38.42;;;;;;;;;;5343959;27;20265;-71
2022/06/06 00:12:54;;;;;;;64.28;37.05;;;;;;;;;;5345355;27;20011;-70
2022/06/06 00:15:25;;;;;;;64.07;36.65;;;;;;;;;;5344744;27;20026;-71
2022/06/06 00:17:56;;;;;;;67.68;37.25;;;;;;;;;;5344289;27;20081;-70
2022/06/06 00:20:28;;;;;;;69.10;36.60;;;;;;;;;;5344598;27;20445;-71
2022/06/06 00:22:59;;;;;;;66.90;36.08;;;;;;;;;;5344162;27;20027;-71
2022/06/06 00:25:30;;;;;;;62.72;34.83;;;;;;;;;;5344569;27;20035;-71
2022/06/06 00:28:01;;;;;;;64.10;34.60;;;;;;;;;;5345176;28;20022;-71
2022/06/06 00:30:33;;;;;;;63.95;33.42;;;;;;;;;;5343853;27;20018;-71
2022/06/06 00:35:59;;;;;;;60.33;33.28;;;;;;;;;;5344974;27;20019;-70
2022/06/06 00:38:30;;;;;;;58.67;34.22;;;;;;;;;;5343606;28;20033;-71
2022/06/06 00:41:01;;;;;;;59.40;33.10;;;;;;;;;;5344499;28;20015;-71
2022/06/06 00:43:32;;;;;;;59.47;34.40;;;;;;;;;;5344601;27;20345;-71
2022/06/06 00:46:05;;;;;;;58.93;32.23;;;;;;;;;;5343936;27;20506;-70
2022/06/06 00:48:37;;;;;;;63.63;33.35;;;;;;;;;;5344718;27;20264;-71
2022/06/06 00:51:13;;;;;;;58.85;33.38;;;;;;;;;;5343887;28;20062;-72
2022/06/06 00:53:52;;;;;;;59.30;33.97;;;;;;;;;;5344574;27;20492;-71
2022/06/06 00:56:27;;;;;;;60.53;34.28;;;;;;;;;;5344147;28;20027;-72
2022/06/06 00:59:00;;;;;;;60.45;35.28;;;;;;;;;;5344392;28;20057;-71
2022/06/06 01:01:34;;;;;;;59.45;32.65;;;;;;;;;;5344474;27;20011;-71
2022/06/06 01:04:06;;;;;;;66.05;35.35;;;;;;;;;;5344477;27;20030;-72
2022/06/06 01:06:41;;;;;;;61.85;36.00;;;;;;;;;;5343455;28;20022;-71
2022/06/06 01:09:13;;;;;;;66.88;37.17;;;;;;;;;;5344223;27;20079;-71
2022/06/06 01:11:47;;;;;;;66.30;37.97;;;;;;;;;;5344543;28;20481;-71
2022/06/06 01:14:20;;;;;;;69.45;39.47;;;;;;;;;;5343187;28;20030;-72
2022/06/06 01:16:57;;;;;;;71.97;40.30;;;;;;;;;;5344415;27;20051;-71
2022/06/06 01:19:36;;;;;;;72.60;40.30;;;;;;;;;;5343239;28;20458;-71
2022/06/06 01:22:26;;;;;;;66.57;39.17;;;;;;;;;;5344202;27;20057;-71
2022/06/06 01:25:16;;;;;;;76.03;43.17;;;;;;;;;;5344654;28;20027;-71
2022/06/06 01:27:52;;;;;;;68.10;41.17;;;;;;;;;;5343501;28;20483;-71
2022/06/06 01:30:35;;;;;;;74.97;43.08;;;;;;;;;;5344084;28;20126;-71
2022/06/06 01:33:08;;;;;;;71.45;43.15;;;;;;;;;;5343467;27;20044;-71
2022/06/06 01:35:42;;;;;;;69.90;42.17;;;;;;;;;;5344071;28;20415;-72
2022/06/06 01:38:15;;;;;;;65.97;42.42;;;;;;;;;;5343965;28;20019;-71
2022/06/06 01:40:54;;;;;;;67.60;41.95;;;;;;;;;;5343573;27;20044;-72
2022/06/06 01:43:28;;;;;;;71.20;43.97;;;;;;;;;;5343981;28;20023;-71
2022/06/06 01:46:01;;;;;;;69.35;41.10;;;;;;;;;;5344412;28;20015;-71
2022/06/06 01:48:35;;;;;;;65.30;39.65;;;;;;;;;;5344988;27;20110;-71
2022/06/06 01:51:14;;;;;;;60.92;39.20;;;;;;;;;;5347607;27;20023;-72
2022/06/06 01:53:45;;;;;;;61.38;38.63;;;;;;;;;;5347876;27;20393;-72
2022/06/06 01:56:19;;;;;;;63.35;38.72;;;;;;;;;;5346871;27;20012;-71
2022/06/06 01:58:50;;;;;;;52.35;34.70;;;;;;;;;;5348042;27;20015;-71
2022/06/06 02:01:22;;;;;;;50.00;32.88;;;;;;;;;;5346352;27;20080;-71
2022/06/06 02:03:53;;;;;;;51.30;32.53;;;;;;;;;;5347802;27;20091;-71
2022/06/06 02:06:24;;;;;;;46.17;30.98;;;;;;;;;;5347155;27;20071;-71
2022/06/06 02:08:56;;;;;;;46.63;29.27;;;;;;;;;;5346887;27;20027;-71
2022/06/06 02:11:28;;;;;;;45.40;29.65;;;;;;;;;;5347024;27;20011;-71
2022/06/06 02:13:59;;;;;;;47.67;28.92;;;;;;;;;;5347796;27;20022;-71
2022/06/06 02:16:31;;;;;;;45.67;29.15;;;;;;;;;;5346105;27;20039;-71
2022/06/06 02:19:02;;;;;;;47.38;29.05;;;;;;;;;;5347292;27;20026;-71
2022/06/06 02:21:34;;;;;;;42.80;29.00;;;;;;;;;;5347029;27;20011;-71
2022/06/06 02:24:05;;;;;;;46.67;27.90;;;;;;;;;;5346245;27;20027;-71
2022/06/06 02:26:36;;;;;;;42.45;27.98;;;;;;;;;;5347277;27;20019;-71
2022/06/06 02:29:07;;;;;;;44.23;27.03;;;;;;;;;;5347126;27;20030;-72
2022/06/06 02:31:39;;;;;;;46.13;28.20;;;;;;;;;;5346401;27;20261;-71
2022/06/06 02:34:10;;;;;;;49.55;29.65;;;;;;;;;;5346851;27;20019;-72
2022/06/06 02:36:41;;;;;;;50.17;29.85;;;;;;;;;;5346163;27;20801;-71
2022/06/06 02:39:13;;;;;;;47.90;31.00;;;;;;;;;;5347011;27;20044;-71
2022/06/06 02:41:44;;;;;;;47.00;30.23;;;;;;;;;;5346894;27;20019;-71
2022/06/06 02:44:15;;;;;;;47.97;28.83;;;;;;;;;;5346073;27;20019;-72
2022/06/06 02:46:47;;;;;;;47.30;29.58;;;;;;;;;;5346708;27;20256;-72
2022/06/06 02:49:18;;;;;;;43.75;28.60;;;;;;;;;;5346443;27;20595;-71
2022/06/06 02:51:49;;;;;;;49.38;28.58;;;;;;;;;;5346289;27;20011;-71
2022/06/06 02:54:20;;;;;;;43.97;29.85;;;;;;;;;;5346315;27;20018;-71
2022/06/06 02:56:52;;;;;;;44.92;26.80;;;;;;;;;;5346862;27;20011;-71
2022/06/06 02:59:24;;;;;;;47.38;29.33;;;;;;;;;;5344968;27;20102;-71
2022/06/06 03:01:55;;;;;;;45.53;27.13;;;;;;;;;;5346804;27;20144;-71
2022/06/06 03:04:27;;;;;;;47.05;29.67;;;;;;;;;;5346176;27;20023;-69
2022/06/06 03:07:06;;;;;;;48.17;29.75;;;;;;;;;;5345902;27;20035;-72
2022/06/06 03:09:38;;;;;;;48.00;30.73;;;;;;;;;;5346446;27;20163;-72
2022/06/06 03:12:27;;;;;;;50.90;29.50;;;;;;;;;;5345388;27;20171;-72
2022/06/06 03:15:06;;;;;;;48.20;29.23;;;;;;;;;;5346731;27;20273;-71
2022/06/06 03:20:49;;;;;;;44.55;28.35;;;;;;;;;;5345476;27;20035;-72
2022/06/06 03:23:32;;;;;;;41.97;26.25;;;;;;;;;;5345905;27;20031;-72
2022/06/06 03:26:22;;;;;;;44.90;28.15;;;;;;;;;;5345344;27;20041;-71
2022/06/06 03:29:03;;;;;;;40.40;25.15;;;;;;;;;;5346030;27;20022;-72
2022/06/06 03:31:53;;;;;;;42.20;26.38;;;;;;;;;;5345542;27;20027;-71
2022/06/06 03:34:33;;;;;;;42.00;26.88;;;;;;;;;;5344558;27;20023;-72
2022/06/06 03:37:04;;;;;;;41.33;26.15;;;;;;;;;;5345689;27;20432;-72
2022/06/06 03:39:38;;;;;;;38.63;25.03;;;;;;;;;;5345790;27;20462;-72
2022/06/06 03:42:10;;;;;;;36.80;24.45;;;;;;;;;;5345298;27;20292;-72
2022/06/06 03:44:59;;;;;;;34.53;23.63;;;;;;;;;;5345590;27;20022;-72
2022/06/06 03:47:40;;;;;;;38.17;23.48;;;;;;;;;;5344464;27;20481;-72
2022/06/06 03:50:14;;;;;;;34.38;23.38;;;;;;;;;;5345661;27;20007;-71
2022/06/06 03:52:47;;;;;;;40.38;23.30;;;;;;;;;;5345573;27;20045;-72
2022/06/06 03:55:19;;;;;;;39.80;23.60;;;;;;;;;;5344371;27;20050;-72
2022/06/06 03:57:52;;;;;;;31.85;22.02;;;;;;;;;;5345799;27;20047;-72
2022/06/06 04:00:24;;;;;;;37.15;22.48;;;;;;;;;;5345119;27;20264;-72
2022/06/06 04:02:55;;;;;;;32.80;20.95;;;;;;;;;;5344814;27;20031;-72
2022/06/06 04:05:28;;;;;;;33.13;22.60;;;;;;;;;;5344921;27;20015;-72
2022/06/06 04:07:59;;;;;;;33.28;21.40;;;;;;;;;;5344610;27;20027;-71
2022/06/06 04:10:34;;;;;;;29.27;20.77;;;;;;;;;;5344258;27;20015;-72
2022/06/06 04:13:38;;;;;;;33.17;21.20;;;;;;;;;;5345283;27;20665;-72
2022/06/06 04:16:09;;;;;;;33.60;21.13;;;;;;;;;;5287248;27;20039;-72
2022/06/06 04:18:47;;;;;;;28.15;17.95;;;;;;;;;;5344998;27;20355;-72
2022/06/06 04:21:24;;;;;;;27.00;17.92;;;;;;;;;;5344990;27;20253;-72
2022/06/06 04:23:58;;;;;;;27.15;17.95;;;;;;;;;;5344039;27;20031;-72
2022/06/06 04:26:38;;;;;;;26.17;18.00;;;;;;;;;;5344552;27;20044;-72
2022/06/06 04:29:21;;;;;;;29.00;19.55;;;;;;;;;;5343957;27;20416;-72
2022/06/06 04:31:52;;;;;;;27.20;17.40;;;;;;;;;;5345254;27;20427;-72
2022/06/06 04:34:23;;;;;;;25.13;16.70;;;;;;;;;;5344469;28;20054;-71
2022/06/06 04:37:13;;;;;;;24.50;16.13;;;;;;;;;;5344271;28;20342;-72
2022/06/06 04:40:08;;;;;;;20.77;14.00;;;;;;;;;;5344933;28;20264;-72
2022/06/06 04:42:57;;;;;;;21.65;13.68;;;;;;;;;;5344679;28;20047;-72
2022/06/06 04:45:31;;;;;;;20.85;14.75;;;;;;;;;;5344202;28;20522;-72
2022/06/06 04:48:04;;;;;;;25.20;15.48;;;;;;;;;;5344622;28;20496;-72
2022/06/06 04:50:35;;;;;;;21.90;14.65;;;;;;;;;;5343855;28;20370;-72
2022/06/06 04:53:08;;;;;;;24.83;15.85;;;;;;;;;;5344645;28;20025;-72
2022/06/06 04:55:41;;;;;;;20.92;14.50;;;;;;;;;;5344633;28;20019;-72
2022/06/06 04:58:13;;;;;;;20.80;16.30;;;;;;;;;;5343736;27;20068;-72
2022/06/06 05:00:44;;;;;;;20.42;15.73;;;;;;;;;;5344757;27;20012;-72
2022/06/06 05:03:16;;;;;;;18.13;16.08;;;;;;;;;;5344498;28;20050;-72
2022/06/06 05:05:51;;;;;;;19.45;17.13;;;;;;;;;;5343695;28;20046;-72
2022/06/06 05:08:32;;;;;;;21.50;17.55;;;;;;;;;;5343873;27;20334;-73
2022/06/06 05:11:33;;;;;;;23.17;17.10;;;;;;;;;;5344569;28;20015;-73
2022/06/06 05:14:20;;;;;;;20.08;17.65;;;;;;;;;;5322281;28;20510;-73
2022/06/06 05:16:51;;;;;;;21.42;18.20;;;;;;;;;;5344317;27;20059;-73
2022/06/06 05:19:31;;;;;;;20.38;17.27;;;;;;;;;;5343375;27;20031;-72
2022/06/06 05:22:19;;;;;;;22.38;18.13;;;;;;;;;;5345673;27;20272;-73
2022/06/06 05:24:59;;;;;;;19.35;17.42;;;;;;;;;;5330411;27;20023;-72
2022/06/06 05:27:43;;;;;;;21.67;17.45;;;;;;;;;;5347181;27;20178;-73
2022/06/06 05:30:19;;;;;;;22.10;17.75;;;;;;;;;;5348586;27;20061;-73
2022/06/06 05:33:00;;;;;;;20.98;17.55;;;;;;;;;;5347987;27;20023;-73
2022/06/06 05:35:32;;;;;;;17.02;14.65;;;;;;;;;;5348088;27;20069;-73
2022/06/06 05:38:06;;;;;;;19.70;15.20;;;;;;;;;;5348372;27;20362;-73
2022/06/06 05:40:39;;;;;;;16.90;15.13;;;;;;;;;;5347457;27;20102;-72
2022/06/06 05:43:17;;;;;;;16.98;15.20;;;;;;;;;;5347730;27;20071;-72
2022/06/06 05:45:55;;;;;;;14.82;13.43;;;;;;;;;;5348120;27;20027;-72
2022/06/06 05:48:45;;;;;;;15.25;13.70;;;;;;;;;;5347122;27;20015;-73
2022/06/06 05:51:30;;;;;;;16.10;13.98;;;;;;;;;;5347857;27;20019;-72
2022/06/06 05:54:20;;;;;;;15.82;13.82;;;;;;;;;;5347101;27;20023;-72
2022/06/06 05:57:03;;;;;;;13.93;12.50;;;;;;;;;;5348329;27;20454;-72
2022/06/06 05:59:40;;;;;;;13.82;12.52;;;;;;;;;;5347660;27;20062;-72
2022/06/06 06:02:30;;;;;;;17.92;13.02;;;;;;;;;;5346668;27;20020;-72
2022/06/06 06:05:04;;;;;;;13.95;12.55;;;;;;;;;;5347641;27;20505;-72
2022/06/06 06:07:53;;;;;;;18.23;12.88;;;;;;;;;;5346668;27;20102;-72
2022/06/06 06:10:37;;;;;;;17.55;12.70;;;;;;;;;;5347082;27;20102;-72
2022/06/06 06:13:20;;;;;;;12.98;11.68;;;;;;;;;;5347442;27;20355;-73
2022/06/06 06:15:52;;;;;;;11.93;10.60;;;;;;;;;;5346860;27;20054;-72
2022/06/06 06:18:38;;;;;;;10.90;9.57;;;;;;;;;;5346982;27;20470;-73
2022/06/06 06:21:11;;;;;;;11.95;8.32;;;;;;;;;;5347140;27;20380;-73
2022/06/06 06:23:47;;;;;;;8.30;7.45;;;;;;;;;;5346200;27;20027;-73
2022/06/06 06:26:19;;;;;;;7.25;6.15;;;;;;;;;;5347139;27;20351;-72
2022/06/06 06:28:50;;;;;;;7.78;5.95;;;;;;;;;;5346809;27;20022;-73
2022/06/06 06:31:22;;;;;;;6.65;4.40;;;;;;;;;;5346656;27;20015;-72
2022/06/06 06:34:03;;;;;;;5.50;3.17;;;;;;;;;;5341974;27;20015;-71
2022/06/06 06:36:45;;;;;;;5.10;2.50;;;;;;;;;;5345846;27;20026;-72
2022/06/06 06:39:35;;;;;;;4.00;2.70;;;;;;;;;;5345604;27;20412;-72
2022/06/06 06:42:22;;;;;;;6.00;2.65;;;;;;;;;;5346038;27;20027;-72
2022/06/06 06:44:54;;;;;;;4.78;2.42;;;;;;;;;;5346558;27;20454;-72
2022/06/06 06:47:29;;;;;;;3.50;1.90;;;;;;;;;;5346399;27;20576;-72
2022/06/06 06:50:16;;;;;;;4.32;1.70;;;;;;;;;;5345865;27;20015;-71
2022/06/06 06:53:05;;;;;;;4.55;1.70;;;;;;;;;;5346381;27;20027;-72
2022/06/06 06:55:49;;;;;;;2.75;1.05;;;;;;;;;;5346432;27;20034;-72
2022/06/06 06:58:39;;;;;;;3.22;1.00;;;;;;;;;;5345304;27;20087;-71
2022/06/06 07:01:16;;;;;;;4.28;0.95;;;;;;;;;;5345984;27;20369;-73
2022/06/06 07:09:56;;;;;;;3.00;0.60;;;;;;;;;;5346127;27;20432;-72
2022/06/06 07:12:46;;;;;;;3.40;0.52;;;;;;;;;;5344913;27;20042;-73
2022/06/06 07:15:20;;;;;;;1.98;0.52;;;;;;;;;;5345818;27;20031;-72
2022/06/06 07:17:53;;;;;;;2.75;0.55;;;;;;;;;;5345183;27;20074;-72
2022/06/06 07:20:25;;;;;;;2.40;0.50;;;;;;;;;;5345704;27;20018;-73
2022/06/06 07:22:59;;;;;;;1.55;0.57;;;;;;;;;;5346039;27;20028;-72
2022/06/06 07:25:37;;;;;;;2.75;0.63;;;;;;;;;;5344991;27;20102;-73
2022/06/06 07:28:20;;;;;;;7.13;0.70;;;;;;;;;;5345672;27;20031;-72
2022/06/06 07:31:09;;;;;;;2.25;0.50;;;;;;;;;;5346042;27;20102;-72
2022/06/06 07:33:59;;;;;;;1.98;0.40;;;;;;;;;;5345134;27;20038;-72
2022/06/06 07:36:42;;;;;;;2.80;1.00;;;;;;;;;;5345260;27;20023;-72
2022/06/06 07:39:31;;;;;;;3.15;0.47;;;;;;;;;;5344921;27;20466;-72
2022/06/06 07:42:17;;;;;;;2.33;0.40;;;;;;;;;;5345823;27;20050;-72
2022/06/06 07:44:56;;;;;;;5.35;0.35;;;;;;;;;;5345013;27;20047;-72
2022/06/06 07:47:35;;;;;;;1.58;0.40;;;;;;;;;;5343854;27;20074;-73
2022/06/06 07:50:19;;;;;;;3.08;0.40;;;;;;;;;;5345249;27;20350;-73
2022/06/06 07:52:52;;;;;;;1.48;0.38;;;;;;;;;;5345467;27;20019;-72
2022/06/06 07:55:27;;;;;;;1.83;0.55;;;;;;;;;;5344785;27;20015;-72
2022/06/06 07:58:04;;;;;;;2.13;0.35;;;;;;;;;;5345430;27;20554;-72
2022/06/06 08:00:36;;;;;;;5.07;0.40;;;;;;;;;;5343598;27;20063;-73
2022/06/06 08:03:14;;;;;;;1.55;0.40;;;;;;;;;;5344932;27;20117;-72
2022/06/06 08:06:00;;;;;;;0.95;0.20;;;;;;;;;;5344956;27;20022;-71
2022/06/06 08:08:31;;;;;;;0.98;0.20;;;;;;;;;;5344262;27;20015;-72
2022/06/06 08:11:23;;;;;;;2.53;0.40;;;;;;;;;;5345079;27;20019;-71
2022/06/06 08:14:05;;;;;;;4.30;0.30;;;;;;;;;;5344126;27;20271;-71
2022/06/06 08:16:41;;;;;;;1.10;0.30;;;;;;;;;;5344437;27;20063;-71
2022/06/06 08:19:19;;;;;;;1.98;0.50;;;;;;;;;;5344879;27;20037;-71
2022/06/06 08:21:50;;;;;;;2.70;0.40;;;;;;;;;;5344300;27;20373;-71
2022/06/06 08:24:23;;;;;;;2.83;0.30;;;;;;;;;;5344838;27;20019;-71
2022/06/06 08:26:55;;;;;;;1.67;0.30;;;;;;;;;;5345080;27;20051;-71
2022/06/06 08:29:27;;;;;;;2.55;0.35;;;;;;;;;;5343593;27;20055;-71
2022/06/06 08:31:59;;;;;;;2.42;0.40;;;;;;;;;;5344880;27;20018;-70
2022/06/06 08:34:30;;;;;;;2.33;0.30;;;;;;;;;;5343969;27;20019;-70
2022/06/06 08:37:10;;;;;;;1.93;0.30;;;;;;;;;;5343529;27;20245;-70
2022/06/06 08:40:00;;;;;;;1.48;0.28;;;;;;;;;;5344582;28;20344;-70
2022/06/06 08:42:43;;;;;;;1.60;0.40;;;;;;;;;;5343472;28;20023;-70
2022/06/06 08:45:17;;;;;;;0.98;0.25;;;;;;;;;;5343787;28;20319;-70
2022/06/06 08:48:02;;;;;;;1.85;0.30;;;;;;;;;;5342983;28;20027;-70
2022/06/06 08:50:46;;;;;;;1.88;0.45;;;;;;;;;;5343459;28;20029;-70
2022/06/06 08:53:23;;;;;;;2.90;1.05;;;;;;;;;;5343945;28;20479;-69
2022/06/06 08:56:12;;;;;;;5.18;1.52;;;;;;;;;;5344424;28;20019;-70
2022/06/06 08:59:01;;;;;;;5.68;1.50;;;;;;;;;;5348728;27;20445;-69
2022/06/06 09:01:54;;;;;;;1.70;0.70;;;;;;;;;;5348476;27;20023;-69
2022/06/06 09:04:37;;;;;;;2.10;0.60;;;;;;;;;;5347810;27;20548;-70
2022/06/06 09:07:08;;;;;;;2.38;0.90;;;;;;;;;;5348567;27;20094;-70
2022/06/06 09:09:39;;;;;;;2.58;0.80;;;;;;;;;;5348613;27;20115;-71
2022/06/06 09:12:29;;;;;;;1.88;0.50;;;;;;;;;;5347544;27;20019;-69
2022/06/06 09:15:16;;;;;;;1.48;0.40;;;;;;;;;;5348387;27;20098;-69
2022/06/06 09:18:03;;;;;;;9.15;1.25;;;;;;;;;;5347551;27;20141;-70
2022/06/06 09:20:43;;;;;;;2.72;0.57;;;;;;;;;;5348532;27;20057;-69
2022/06/06 09:23:17;;;;;;;1.15;0.30;;;;;;;;;;5348356;27;20039;-70
2022/06/06 09:25:52;;;;;;;1.10;0.30;;;;;;;;;;5347479;27;20030;-70
2022/06/06 09:28:32;;;;;;;1.50;0.30;;;;;;;;;;5348149;27;20353;-70
2022/06/06 09:31:12;;;;;;;2.88;0.35;;;;;;;;;;5348380;27;20031;-70
2022/06/06 09:34:03;;;;;;;2.13;0.30;;;;;;;;;;5347473;27;20393;-70
2022/06/06 09:36:40;;;;;;;1.83;0.30;;;;;;;;;;5347944;27;20057;-70
2022/06/06 09:39:13;;;;;;;4.43;0.40;;;;;;;;;;5347307;27;20023;-70
2022/06/06 09:41:54;;;;;;;0.75;0.20;;;;;;;;;;5348181;27;20060;-71
2022/06/06 09:44:51;;;;;;;2.33;0.25;;;;;;;;;;5348002;27;20485;-70
2022/06/06 09:47:31;;;;;;;1.27;0.20;;;;;;;;;;5341723;27;20043;-71
2022/06/06 09:50:06;;;;;;;1.38;0.10;;;;;;;;;;5347939;27;20039;-70
2022/06/06 09:52:49;;;;;;;2.58;0.20;;;;;;;;;;5346966;27;20031;-70
2022/06/06 09:59:01;;;;;;;2.50;0.20;;;;;;;;;;5347938;27;20034;-71
2022/06/06 10:01:51;;;;;;;0.80;0.22;;;;;;;;;;5346842;27;20019;-71
2022/06/06 10:04:22;;;;;;;1.92;0.30;;;;;;;;;;5347727;27;20114;-71
2022/06/06 10:07:12;;;;;;;1.38;0.13;;;;;;;;;;5347395;27;20152;-70
2022/06/06 10:09:43;;;;;;;1.58;0.20;;;;;;;;;;5346609;27;20047;-71
2022/06/06 10:12:34;;;;;;;2.50;0.20;;;;;;;;;;5347676;27;20042;-71
2022/06/06 10:15:24;;;;;;;1.38;0.20;;;;;;;;;;5328559;27;20019;-70
2022/06/06 10:18:03;;;;;;;0.80;0.20;;;;;;;;;;5347648;27;20122;-70
2022/06/06 10:20:35;;;;;;;1.92;0.40;;;;;;;;;;5346497;27;20019;-70
2022/06/06 10:23:23;;;;;;;1.02;0.20;;;;;;;;;;5347058;27;20034;-70
2022/06/06 10:25:55;;;;;;;1.45;0.30;;;;;;;;;;5347448;27;20055;-69
2022/06/06 10:28:39;;;;;;;0.95;0.20;;;;;;;;;;5345934;27;20042;-70
2022/06/06 10:31:22;;;;;;;2.33;0.35;;;;;;;;;;5346999;27;20047;-71
2022/06/06 10:33:59;;;;;;;2.58;0.30;;;;;;;;;;5347605;27;20027;-70
2022/06/06 10:36:49;;;;;;;2.25;0.28;;;;;;;;;;5346014;27;20486;-71
2022/06/06 10:39:29;;;;;;;1.08;0.20;;;;;;;;;;5346628;27;20023;-71
2022/06/06 10:42:00;;;;;;;1.05;0.20;;;;;;;;;;5346086;27;20591;-71
2022/06/06 10:44:38;;;;;;;2.40;0.50;;;;;;;;;;5347097;27;20027;-71
2022/06/06 10:47:20;;;;;;;1.50;0.38;;;;;;;;;;5346895;27;20441;-71
2022/06/06 10:50:01;;;;;;;2.80;0.28;;;;;;;;;;5346276;27;20030;-71
2022/06/06 10:52:52;;;;;;;2.05;0.20;;;;;;;;;;5346464;27;20156;-70
2022/06/06 10:55:36;;;;;;;2.67;0.20;;;;;;;;;;5346452;27;20023;-71
2022/06/06 10:58:18;;;;;;;0.65;0.20;;;;;;;;;;5345788;27;20019;-72
2022/06/06 11:01:08;;;;;;;1.83;0.20;;;;;;;;;;5346793;27;20092;-70
2022/06/06 11:03:39;;;;;;;0.50;0.10;;;;;;;;;;5345468;27;20028;-71
2022/06/06 11:06:17;;;;;;;2.88;0.40;;;;;;;;;;5346195;27;20374;-71
2022/06/06 11:09:07;;;;;;;2.45;0.20;;;;;;;;;;5346086;27;20034;-71
2022/06/06 11:11:47;;;;;;;2.85;0.20;;;;;;;;;;5345439;27;20407;-71
2022/06/06 11:14:24;;;;;;;2.42;0.20;;;;;;;;;;5345891;27;20414;-71
2022/06/06 11:17:18;;;;;;;2.83;0.20;;;;;;;;;;5345397;27;20082;-70
2022/06/06 11:20:02;;;;;;;2.70;0.20;;;;;;;;;;5345986;27;20043;-71
2022/06/06 11:22:36;;;;;;;1.80;0.52;;;;;;;;;;5345859;27;20477;-71
2022/06/06 11:25:15;;;;;;;1.52;0.10;;;;;;;;;;5345168;27;20128;-71
2022/06/06 11:27:59;;;;;;;1.40;0.20;;;;;;;;;;5345332;27;20095;-71
2022/06/06 11:30:41;;;;;;;2.15;0.20;;;;;;;;;;5345585;27;20054;-71
2022/06/06 11:33:30;;;;;;;2.80;0.13;;;;;;;;;;5344920;27;20322;-72
2022/06/06 11:36:23;;;;;;;5.53;0.40;;;;;;;;;;5345684;27;20111;-72
2022/06/06 11:38:54;;;;;;;3.40;0.20;;;;;;;;;;5345262;27;20466;-72
2022/06/06 11:41:34;;;;;;;1.40;0.20;;;;;;;;;;5345344;27;20026;-72
2022/06/06 11:44:09;;;;;;;1.23;0.20;;;;;;;;;;5345436;27;20129;-73
2022/06/06 11:46:59;;;;;;;2.63;0.20;;;;;;;;;;5344517;27;20017;-71
2022/06/06 11:49:55;;;;;;;2.63;0.30;;;;;;;;;;5345357;27;20027;-72
2022/06/06 11:52:27;;;;;;;1.88;0.20;;;;;;;;;;5344211;27;20015;-72
2022/06/06 11:54:58;;;;;;;2.35;0.20;;;;;;;;;;5345522;27;20474;-72
2022/06/06 11:57:47;;;;;;;1.17;0.20;;;;;;;;;;5345200;27;20027;-71
2022/06/06 12:00:21;;;;;;;2.95;0.10;;;;;;;;;;5344188;27;20027;-72
2022/06/06 12:03:01;;;;;;;2.30;0.20;;;;;;;;;;5345485;27;20084;-70
2022/06/06 12:05:47;;;;;;;1.27;0.17;;;;;;;;;;5344895;27;20088;-71
2022/06/06 12:08:36;;;;;;;3.45;0.40;;;;;;;;;;5343907;27;20110;-72
2022/06/06 12:11:22;;;;;;;1.55;0.20;;;;;;;;;;5344847;27;20053;-71
2022/06/06 12:13:54;;;;;;;0.65;0.13;;;;;;;;;;5344456;27;20043;-72
2022/06/06 12:16:37;;;;;;;2.75;0.20;;;;;;;;;;5344484;27;20058;-72
2022/06/06 12:19:23;;;;;;;3.97;0.20;;;;;;;;;;5323409;28;20044;-71
2022/06/06 12:22:27;;;;;;;1.50;0.20;;;;;;;;;;5322943;28;20024;-72
2022/06/06 12:25:04;;;;;;;2.85;0.20;;;;;;;;;;5256557;28;20062;-73
2022/06/06 12:27:46;;;;;;;1.85;0.20;;;;;;;;;;5322520;28;20130;-72
2022/06/06 12:30:36;;;;;;;3.50;0.20;;;;;;;;;;5322949;28;20374;-70
2022/06/06 12:33:12;;;;;;;2.17;0.20;;;;;;;;;;5322520;28;20141;-77
2022/06/06 12:36:14;;;;;;;2.55;0.30;;;;;;;;;;5321769;28;20087;-72
2022/06/06 12:39:01;;;;;;;1.92;0.22;;;;;;;;;;5296599;28;20035;-73
2022/06/06 12:41:40;;;;;;;2.22;0.20;;;;;;;;;;5321357;28;20023;-72
2022/06/06 12:44:25;;;;;;;1.80;0.20;;;;;;;;;;5322721;28;20428;-72
2022/06/06 12:47:06;;;;;;;1.67;0.20;;;;;;;;;;5322408;28;20028;-73
2022/06/06 12:49:56;;;;;;;1.67;0.20;;;;;;;;;;5321651;28;20020;-72
2022/06/06 12:52:48;;;;;;;2.22;0.20;;;;;;;;;;5322413;28;20527;-73
2022/06/06 12:55:58;;;;;;;3.80;0.30;;;;;;;;;;5260401;28;20027;-72
2022/06/06 12:58:35;;;;;;;4.10;0.38;;;;;;;;;;5322630;28;20420;-73
2022/06/06 13:04:09;;;;;;;1.05;0.20;;;;;;;;;;5322018;28;20455;-72
2022/06/06 13:06:58;;;;;;;2.55;0.30;;;;;;;;;;5322525;28;20079;-71
2022/06/06 13:10:05;;;;;;;5.65;0.20;;;;;;;;;;5321663;28;20479;-72
2022/06/06 13:12:55;;;;;;;3.55;0.20;;;;;;;;;;5195875;28;20023;-72
2022/06/06 13:15:51;;;;;;;1.88;0.30;;;;;;;;;;5316809;28;20031;-72
2022/06/06 13:18:22;;;;;;;3.15;0.47;;;;;;;;;;5321273;28;20501;-72
2022/06/06 13:20:56;;;;;;;6.60;0.40;;;;;;;;;;5322995;28;20032;-71
2022/06/06 13:23:33;;;;;;;1.67;0.20;;;;;;;;;;5321558;28;20312;-72
2022/06/06 13:26:16;;;;;;;3.67;0.90;;;;;;;;;;5322547;28;20447;-72
2022/06/06 13:28:52;;;;;;;2.25;0.20;;;;;;;;;;5322267;28;20458;-71
2022/06/06 13:31:44;;;;;;;1.83;0.30;;;;;;;;;;5321514;28;20051;-72
2022/06/06 13:34:39;;;;;;;3.00;0.20;;;;;;;;;;5322776;28;20019;-72
2022/06/06 13:37:24;;;;;;;3.13;0.30;;;;;;;;;;5322735;28;20300;-72
2022/06/06 13:40:04;;;;;;;1.10;0.20;;;;;;;;;;5322038;28;20072;-72
2022/06/06 13:42:41;;;;;;;3.33;0.30;;;;;;;;;;5322895;28;20458;-73
2022/06/06 13:45:18;;;;;;;1.70;0.30;;;;;;;;;;5325749;28;20107;-73
2022/06/06 13:48:08;;;;;;;1.42;0.20;;;;;;;;;;5326543;28;20373;-72
2022/06/06 13:50:54;;;;;;;2.80;0.20;;;;;;;;;;5326183;28;20034;-70
2022/06/06 13:53:36;;;;;;;2.55;0.25;;;;;;;;;;5324959;28;20030;-70
2022/06/06 13:56:23;;;;;;;3.63;0.30;;;;;;;;;;5326336;28;20474;-70
2022/06/06 13:58:54;;;;;;;1.90;0.35;;;;;;;;;;5325517;28;20101;-70
2022/06/06 14:01:34;;;;;;;2.25;0.40;;;;;;;;;;5324895;28;20047;-70
2022/06/06 14:04:14;;;;;;;1.13;0.20;;;;;;;;;;5325105;28;20293;-71
2022/06/06 14:07:03;;;;;;;1.90;0.20;;;;;;;;;;5323037;28;20084;-71
2022/06/06 14:09:35;;;;;;;1.50;0.20;;;;;;;;;;5323472;28;20019;-71
2022/06/06 14:12:21;;;;;;;1.90;0.20;;;;;;;;;;5323746;28;20019;-70
2022/06/06 14:15:00;;;;;;;2.00;0.30;;;;;;;;;;5323380;28;20261;-72
2022/06/06 14:17:33;;;;;;;3.33;0.25;;;;;;;;;;5323851;28;20181;-71
2022/06/06 14:20:20;;;;;;;2.17;0.20;;;;;;;;;;5324531;28;20028;-71
2022/06/06 14:22:51;;;;;;;1.38;0.20;;;;;;;;;;5325877;28;20110;-71
2022/06/06 14:25:22;;;;;;;1.60;0.20;;;;;;;;;;5325508;28;20407;-72
2022/06/06 14:28:13;;;;;;;2.30;0.30;;;;;;;;;;5324980;28;20107;-72
2022/06/06 14:30:45;;;;;;;1.73;0.20;;;;;;;;;;5325010;28;20015;-72
2022/06/06 14:33:25;;;;;;;2.22;0.20;;;;;;;;;;5325230;28;20419;-71
2022/06/06 14:36:16;;;;;;;1.10;0.20;;;;;;;;;;5325163;28;20028;-72
2022/06/06 14:38:54;;;;;;;4.38;0.40;;;;;;;;;;5325583;28;20019;-72
2022/06/06 14:41:31;;;;;;;1.73;0.32;;;;;;;;;;5324247;28;20386;-72
2022/06/06 14:44:03;;;;;;;3.40;0.30;;;;;;;;;;5325267;28;20571;-71
2022/06/06 14:46:45;;;;;;;3.78;0.50;;;;;;;;;;5324754;28;20054;-71
2022/06/06 14:49:22;;;;;;;2.47;0.20;;;;;;;;;;5323712;28;20046;-71
2022/06/06 14:51:53;;;;;;;4.35;0.28;;;;;;;;;;5325075;28;20023;-71
2022/06/06 14:54:25;;;;;;;3.33;0.30;;;;;;;;;;5324408;28;20026;-71
2022/06/06 14:56:58;;;;;;;1.80;0.65;;;;;;;;;;5324543;28;20015;-71
2022/06/06 14:59:38;;;;;;;1.52;0.30;;;;;;;;;;5324391;28;20351;-71
2022/06/06 15:02:12;;;;;;;5.53;0.30;;;;;;;;;;5322751;28;20097;-73
2022/06/06 15:04:44;;;;;;;3.92;0.30;;;;;;;;;;5323614;28;20481;-70
2022/06/06 15:07:18;;;;;;;2.80;0.20;;;;;;;;;;5324227;28;20015;-72
2022/06/06 15:09:52;;;;;;;2.30;0.20;;;;;;;;;;5323871;28;20077;-72
2022/06/06 15:12:24;;;;;;;3.38;0.30;;;;;;;;;;5323462;28;20130;-72
2022/06/06 15:15:00;;;;;;;2.97;0.30;;;;;;;;;;5323872;28;20370;-72
2022/06/06 15:17:33;;;;;;;3.13;0.40;;;;;;;;;;5322754;28;20062;-72
2022/06/06 15:20:05;;;;;;;5.15;0.75;;;;;;;;;;5323738;28;20011;-72
2022/06/06 15:22:38;;;;;;;4.10;0.88;;;;;;;;;;5323349;28;20038;-72
2022/06/06 15:25:16;;;;;;;4.00;0.50;;;;;;;;;;5322877;28;20111;-73
2022/06/06 15:27:56;;;;;;;4.32;0.98;;;;;;;;;;5323432;28;20012;-72
2022/06/06 15:30:31;;;;;;;4.78;0.43;;;;;;;;;;5322919;28;20073;-73
2022/06/06 15:33:03;;;;;;;3.63;0.50;;;;;;;;;;5323546;28;20388;-73
2022/06/06 15:35:35;;;;;;;3.97;0.50;;;;;;;;;;5323156;28;20023;-73
2022/06/06 15:38:21;;;;;;;3.88;0.40;;;;;;;;;;5322628;28;20047;-72
2022/06/06 15:40:55;;;;;;;2.75;0.30;;;;;;;;;;5324305;28;20490;-73
2022/06/06 15:43:35;;;;;;;1.65;0.20;;;;;;;;;;5323644;28;20343;-73
2022/06/06 15:46:12;;;;;;;1.95;0.40;;;;;;;;;;5322774;28;20064;-73
2022/06/06 15:48:43;;;;;;;2.00;0.30;;;;;;;;;;5323308;28;20158;-72
2022/06/06 15:51:23;;;;;;;2.90;0.30;;;;;;;;;;5322771;28;20098;-73
2022/06/06 15:54:16;;;;;;;1.73;0.30;;;;;;;;;;5323959;28;20465;-73
2022/06/06 15:56:53;;;;;;;2.92;0.30;;;;;;;;;;5323792;28;20059;-73
2022/06/06 15:59:45;;;;;;;3.33;0.50;;;;;;;;;;5322659;28;20058;-73